HAK weather

Haikou Meilan International Airport
Haikou, Hainan Province, China

Public forecast

Using degrees Celsius for public forecast. Weather courtesy of forecast.io.

METAR (pilot weather report)

Retrieved 2019/05/22 16:00 UTC (51 minutes ago):

ZJHK 221600Z 21002MPS CAVOK 25/24 Q1009 NOSIG

TAF (pilot weather forecast)

Retrieved 2019/05/22 12:03 UTC (5 hours ago):

TAF ZJHK 220906Z 2212/2312 11003MPS 9999 SCT020 TX33/2306Z TN26/2221Z TEMPO 2305/2311 -TSRA SCT020 FEW026CB